Angoon, AK (99820)

8:53 AM AKST on January 30, 2015 (GMT -0900)
Angoon | Change Station
CLOSE
Current Station
Airport
Location: Angoon,
Elevation: 0 ft
Nearby Weather Stations

Elev 0 ft 57.50 °N, 134.59 °W | Updated 57 minutes ago

Overcast
Overcast
36 °F
Feels Like 36 °F
N
0
Wind Variable Wind from North

Today
High -- | Low -- °F
--% Chance of Precip.
Yesterday
High -- | Low -- °F
Precip. -- in
8:03 AM 4:20 PM
Waxing Gibbous, 84% visible
Pressure 30.32 in
Visibility 10.0 miles
Clouds Overcast 700 ft
Dew Point 35 °F
Humidity 96%
Rainfall 0.00 in
Snow Depth Not available.
UV 0 out of 12
Pollen Not available.
Air Quality Not available.
Flu Activity Not available.
METAR PAGN 301656Z AUTO 00000KT 10SM OVC007 02/02 A3031 RMK AO2 TSNO T00220016 CIG 005V010 SLP267 $

More Conditions Fewer Conditions

Pressure 30.32 in
Visibility 10.0 miles
Clouds Overcast 700 ft
Dew Point 35 °F
Humidity 96%
Rainfall 0.00 in
Snow Depth Not available.
UV 0 out of 12
Pollen Not available.
Air Quality Not available.
Flu Activity Not available.
METAR PAGN 301656Z AUTO 00000KT 10SM OVC007 02/02 A3031 RMK AO2 TSNO T00220016 CIG 005V010 SLP267 $

More Conditions Fewer Conditions

10-Day Weather Forecast

Almanac

Astronomy

Jan. 30, 2015 Rise Set
Actual Time
Civil Twilight
Nautical Twilight
Astronomical Twilight
Moon
Length of Visible Light
Length of Day
Tomorrow will be .
, % of the Moon is Illuminated

Today's Extremes

State Highs State Lows

Community

WunderPhotos

Upload Photos

1,791,835 photos uploaded!

WunderBlogs® & News

Nearby

Air Quality

  Air Quality AQ Index Pollutant
Not available.

Snow Depth

Station Depth Elevation

Earthquake Activity

City Distance Mag. Time & Date
Minimum magnitude displayed is 2.5.

Coastal Water Temperatures

Place Temperature

Nearby Weather Stations